Terminal Aerodrome Forecast
Issued by NWS

Home | Current Version | Previous Version | Text Only | Print | Product List | Glossary On
Versions: 1 2 3 4 5 6 7 8 9 10 11 12 13
000
FTUS42 KGSP 041123
TAFAND
TAF
KAND 041123Z 0412/0512 02003KT P6SM FEW250
     FM041500 06005KT P6SM SCT060
     FM042200 06005KT P6SM BKN070 PROB30 0422/0504 4SM TSRA BKN040CB
     FM050400 05005KT P6SM BKN080=

USA.gov is the U.S. government's official web portal to all federal, state and local government web resources and services.